Time;durP1;ratioP1;P1;durP2;ratioP2;P2;SDS_P1;SDS_P2;PMS_P1;PMS_P2;Temp;Humidity;BMP_temperature;BMP_pressure;BME280_temperature;BME280_humidity;BME280_pressure;Samples;Min_cycle;Max_cycle;Signal;HPM_P1;HPM_P2
2022/11/01 00:01:02;;;;;;;19.70;11.35;;;12.20;99.90;;;;;;6185060;23;20036;-82
2022/11/01 00:03:28;;;;;;;20.52;11.43;;;12.20;99.90;;;;;;6184478;23;20021;-82
2022/11/01 00:05:54;;;;;;;26.58;11.55;;;12.20;99.90;;;;;;6184927;23;20020;-83
2022/11/01 00:08:19;;;;;;;20.95;12.15;;;12.20;99.90;;;;;;6186710;23;20020;-82
2022/11/01 00:10:45;;;;;;;22.33;10.95;;;12.20;99.90;;;;;;6184612;23;20382;-83
2022/11/01 00:13:10;;;;;;;19.65;11.50;;;12.20;99.90;;;;;;6186299;23;20005;-82
2022/11/01 00:15:36;;;;;;;23.17;10.73;;;12.20;99.90;;;;;;6186378;23;20337;-83
2022/11/01 00:18:02;;;;;;;21.17;12.27;;;12.20;99.90;;;;;;6184784;23;20079;-83
2022/11/01 00:20:27;;;;;;;23.25;12.15;;;12.20;99.90;;;;;;6185864;23;20013;-82
2022/11/01 00:22:53;;;;;;;19.60;10.75;;;12.20;99.90;;;;;;6186751;23;20015;-82
2022/11/01 00:25:18;;;;;;;20.60;11.35;;;12.20;99.90;;;;;;6185034;23;20104;-83
2022/11/01 00:27:44;;;;;;;22.33;11.60;;;12.20;99.90;;;;;;6186341;23;20013;-82
2022/11/01 00:30:10;;;;;;;18.85;10.32;;;12.20;99.90;;;;;;6209612;23;20021;-81
2022/11/01 00:32:36;;;;;;;22.98;11.38;;;12.20;99.90;;;;;;6184002;23;20088;-81
2022/11/01 00:35:01;;;;;;;27.73;10.90;;;12.30;99.90;;;;;;6186263;23;20126;-81
2022/11/01 00:37:28;;;;;;;21.98;11.23;;;12.30;99.90;;;;;;6186485;23;20013;-81
2022/11/01 00:39:57;;;;;;;19.73;11.43;;;12.30;99.90;;;;;;6189451;23;20020;-81
2022/11/01 00:42:22;;;;;;;20.27;11.77;;;12.30;99.90;;;;;;6189537;23;20044;-82
2022/11/01 00:44:48;;;;;;;19.45;11.35;;;12.30;99.90;;;;;;6216113;23;20012;-82
2022/11/01 00:47:14;;;;;;;18.50;11.63;;;12.30;99.90;;;;;;6215534;23;20012;-81
2022/11/01 00:49:39;;;;;;;19.75;10.75;;;12.40;99.90;;;;;;6214434;23;20013;-81
2022/11/01 00:52:05;;;;;;;20.02;11.02;;;12.40;99.90;;;;;;6216367;23;20028;-81
2022/11/01 00:54:30;;;;;;;22.88;11.07;;;12.40;99.90;;;;;;6189878;23;20020;-81
2022/11/01 00:56:56;;;;;;;19.63;10.25;;;12.40;99.90;;;;;;6189215;23;20044;-81
2022/11/01 00:59:22;;;;;;;16.67;10.07;;;12.40;99.90;;;;;;6214389;23;20027;-81
2022/11/01 01:01:48;;;;;;;22.70;10.20;;;12.50;99.90;;;;;;6189000;23;20015;-82
2022/11/01 01:04:13;;;;;;;18.30;9.75;;;12.60;99.90;;;;;;6188883;23;20017;-82
2022/11/01 01:06:39;;;;;;;19.70;10.07;;;12.60;99.90;;;;;;6188535;23;20071;-81
2022/11/01 01:09:04;;;;;;;17.95;9.93;;;12.60;99.90;;;;;;6188425;23;20017;-81
2022/11/01 01:11:30;;;;;;;17.60;8.65;;;12.60;99.90;;;;;;6188638;23;20016;-81
2022/11/01 01:13:56;;;;;;;17.13;8.98;;;12.60;99.90;;;;;;6213817;23;20032;-82
2022/11/01 01:16:21;;;;;;;17.60;9.45;;;12.60;99.90;;;;;;6189212;23;20370;-82
2022/11/01 01:18:47;;;;;;;16.20;9.52;;;12.60;99.90;;;;;;6189070;23;20016;-82
2022/11/01 01:21:14;;;;;;;16.80;8.55;;;12.60;99.90;;;;;;6188517;23;20017;-81
2022/11/01 01:23:40;;;;;;;17.42;8.65;;;12.70;99.90;;;;;;6189068;23;20507;-82
2022/11/01 01:26:07;;;;;;;13.85;7.70;;;12.70;99.90;;;;;;6215118;23;20013;-82
2022/11/01 01:28:32;;;;;;;15.50;7.78;;;12.70;99.90;;;;;;6188842;23;20386;-82
2022/11/01 01:30:58;;;;;;;18.73;8.35;;;12.80;99.90;;;;;;6164327;23;20009;-82
2022/11/01 01:33:24;;;;;;;20.45;8.18;;;12.80;99.90;;;;;;6215701;23;20016;-81
2022/11/01 01:35:49;;;;;;;16.23;7.70;;;12.80;99.90;;;;;;6164276;23;20066;-82
2022/11/01 01:38:15;;;;;;;17.60;7.93;;;12.90;99.90;;;;;;6215861;23;20029;-81
2022/11/01 01:40:41;;;;;;;17.52;7.65;;;13.00;99.90;;;;;;6188228;23;20441;-82
2022/11/01 01:43:11;;;;;;;12.30;7.57;;;13.10;99.90;;;;;;6163223;23;20020;-81
2022/11/01 01:45:39;;;;;;;14.63;8.10;;;13.00;99.90;;;;;;6163515;23;20020;-81
2022/11/01 01:48:10;;;;;;;16.25;8.20;;;13.10;99.90;;;;;;6188369;23;20016;-82
2022/11/01 01:50:47;;;;;;;15.48;7.43;;;13.10;99.90;;;;;;6188064;23;20322;-82
2022/11/01 01:53:27;;;;;;;18.38;8.00;;;13.20;99.90;;;;;;6215518;23;20039;-82
2022/11/01 01:56:00;;;;;;;13.65;7.07;;;13.30;99.90;;;;;;6215008;23;20008;-81
2022/11/01 01:58:50;;;;;;;14.60;7.45;;;13.40;99.90;;;;;;6215577;23;20016;-81
2022/11/01 02:01:17;;;;;;;20.38;8.45;;;13.60;99.90;;;;;;6188502;23;20020;-82
2022/11/01 02:03:43;;;;;;;19.73;8.50;;;13.60;99.90;;;;;;6184710;23;20444;-81
2022/11/01 02:06:15;;;;;;;16.77;7.50;;;13.60;99.90;;;;;;6210747;23;20028;-82
2022/11/01 02:08:47;;;;;;;14.75;7.38;;;13.60;99.90;;;;;;6210619;23;20025;-81
2022/11/01 02:11:14;;;;;;;15.75;7.43;;;13.60;99.90;;;;;;6184543;23;20013;-81
2022/11/01 02:13:40;;;;;;;15.40;7.45;;;13.80;99.90;;;;;;6184301;23;20012;-82
2022/11/01 02:16:34;;;;;;;18.17;7.95;;;13.60;99.90;;;;;;6159523;23;20387;-80
2022/11/01 02:19:18;;;;;;;18.83;7.10;;;13.60;99.90;;;;;;6184032;23;20230;-81
2022/11/01 02:22:11;;;;;;;16.23;6.82;;;13.60;99.90;;;;;;6184052;23;20017;-81
2022/11/01 02:24:45;;;;;;;15.85;7.22;;;13.60;99.90;;;;;;6183254;23;20019;-81
2022/11/01 02:27:16;;;;;;;13.63;6.90;;;13.60;99.90;;;;;;6184059;23;20013;-81
2022/11/01 02:30:00;;;;;;;21.10;7.68;;;13.70;99.90;;;;;;6211116;23;20012;-82
2022/11/01 02:32:48;;;;;;;14.98;7.50;;;13.70;99.90;;;;;;6183970;23;20012;-81
2022/11/01 02:35:30;;;;;;;22.75;9.02;;;13.80;99.90;;;;;;6183620;23;20031;-81
2022/11/01 02:38:23;;;;;;;14.93;7.63;;;13.80;99.90;;;;;;6183450;23;20016;-81
2022/11/01 02:41:04;;;;;;;14.10;7.70;;;13.80;99.90;;;;;;6184098;23;20401;-81
2022/11/01 02:43:39;;;;;;;16.02;7.40;;;13.80;99.90;;;;;;6210764;23;20199;-81
2022/11/01 02:48:52;;;;;;;15.15;7.13;;;14.00;99.90;;;;;;6210393;23;20449;-80
2022/11/01 02:51:21;;;;;;;15.60;8.05;;;13.90;99.90;;;;;;6183859;23;20009;-81
2022/11/01 02:53:47;;;;;;;12.88;6.90;;;13.90;99.90;;;;;;6210107;23;20084;-82
2022/11/01 02:56:13;;;;;;;13.90;7.60;;;13.90;99.90;;;;;;6210977;23;20044;-81
2022/11/01 02:58:39;;;;;;;16.42;7.82;;;14.00;99.90;;;;;;6210962;23;20012;-82
2022/11/01 03:01:14;;;;;;;14.23;6.75;;;14.00;99.90;;;;;;6210934;23;20122;-82
2022/11/01 03:03:44;;;;;;;18.77;7.43;;;14.00;99.90;;;;;;6158694;23;20016;-82
2022/11/01 03:06:35;;;;;;;14.73;7.15;;;13.90;99.90;;;;;;6182988;23;20021;-82
2022/11/01 03:09:08;;;;;;;14.77;7.13;;;14.00;99.90;;;;;;6167102;23;20377;-82
2022/11/01 03:12:00;;;;;;;19.42;7.78;;;13.90;99.90;;;;;;6184001;23;20013;-81
2022/11/01 03:14:53;;;;;;;16.65;7.07;;;13.90;99.90;;;;;;6184099;23;20021;-82
2022/11/01 03:17:31;;;;;;;14.15;6.88;;;13.90;99.90;;;;;;6184535;23;20376;-82
2022/11/01 03:20:18;;;;;;;16.38;7.18;;;13.90;99.90;;;;;;6159071;23;20380;-82
2022/11/01 03:22:48;;;;;;;15.82;7.70;;;13.90;99.90;;;;;;6210631;23;20008;-82
2022/11/01 03:25:39;;;;;;;15.27;7.00;;;14.00;99.90;;;;;;6209788;23;20088;-82
2022/11/01 03:28:13;;;;;;;17.38;7.15;;;14.00;99.90;;;;;;6183922;23;20040;-82
2022/11/01 03:30:44;;;;;;;17.33;6.45;;;14.00;99.90;;;;;;6210453;23;20012;-82
2022/11/01 03:33:14;;;;;;;14.85;7.10;;;14.10;99.90;;;;;;6184727;23;20013;-81
2022/11/01 03:35:44;;;;;;;12.95;7.00;;;14.20;99.90;;;;;;6212204;23;20020;-82
2022/11/01 03:38:15;;;;;;;15.15;6.95;;;14.30;99.90;;;;;;6213099;23;20036;-82
2022/11/01 03:40:48;;;;;;;14.38;6.35;;;14.30;99.90;;;;;;6186003;23;20058;-82
2022/11/01 03:43:16;;;;;;;12.05;6.35;;;14.30;99.90;;;;;;6161318;23;20013;-82
2022/11/01 03:45:42;;;;;;;12.10;6.45;;;14.30;99.90;;;;;;6212699;23;20013;-81
2022/11/01 03:48:09;;;;;;;13.57;6.63;;;14.40;99.90;;;;;;6212669;23;20135;-82
2022/11/01 03:50:35;;;;;;;14.07;6.70;;;14.40;99.90;;;;;;6184952;23;20012;-82
2022/11/01 03:53:00;;;;;;;13.60;6.35;;;14.40;99.90;;;;;;6212427;23;20015;-81
2022/11/01 03:55:26;;;;;;;14.32;6.43;;;14.40;99.90;;;;;;6212196;23;20428;-82
2022/11/01 03:57:54;;;;;;;15.45;6.47;;;14.40;99.90;;;;;;6185462;23;20322;-82
2022/11/01 04:00:23;;;;;;;14.45;6.25;;;14.40;99.90;;;;;;6185698;23;20017;-82
2022/11/01 04:02:50;;;;;;;15.07;6.25;;;14.30;99.90;;;;;;6185051;23;20023;-82
2022/11/01 04:05:17;;;;;;;12.18;5.88;;;14.40;99.90;;;;;;6210973;23;20079;-82
2022/11/01 04:07:43;;;;;;;14.38;6.35;;;14.30;99.90;;;;;;6210593;23;20433;-82
2022/11/01 04:10:09;;;;;;;16.85;6.13;;;14.30;99.90;;;;;;6185157;23;20377;-81
2022/11/01 04:12:35;;;;;;;14.15;6.43;;;14.30;99.90;;;;;;6212483;23;20055;-82
2022/11/01 04:20:32;;;;;;;17.05;5.95;;;14.20;99.90;;;;;;6211386;23;20341;-81
2022/11/01 04:23:03;;;;;;;14.27;6.55;;;14.20;99.90;;;;;;6211959;23;20046;-82
2022/11/01 04:25:30;;;;;;;10.80;6.05;;;14.20;99.90;;;;;;6185485;23;20480;-82
2022/11/01 04:27:55;;;;;;;13.30;6.25;;;14.20;99.90;;;;;;6184720;23;20017;-82
2022/11/01 04:30:26;;;;;;;13.52;6.10;;;14.20;99.90;;;;;;6184873;23;20244;-82
2022/11/01 04:32:52;;;;;;;14.38;6.03;;;14.20;99.90;;;;;;6211651;23;20013;-82
2022/11/01 04:35:18;;;;;;;10.65;6.03;;;14.20;99.90;;;;;;6210923;23;20019;-81
2022/11/01 04:37:44;;;;;;;15.07;5.07;;;14.30;99.90;;;;;;6160903;23;20017;-82
2022/11/01 04:40:14;;;;;;;10.82;5.53;;;14.20;99.90;;;;;;6160031;23;20349;-82
2022/11/01 04:42:40;;;;;;;13.73;5.00;;;14.30;99.90;;;;;;6212384;23;20063;-82
2022/11/01 04:45:07;;;;;;;15.57;6.15;;;14.30;99.90;;;;;;6159723;23;20021;-82
2022/11/01 04:47:33;;;;;;;14.02;5.88;;;14.30;99.90;;;;;;6185089;23;20032;-82
2022/11/01 04:49:59;;;;;;;12.43;5.55;;;14.40;99.90;;;;;;6184317;23;20036;-82
2022/11/01 04:52:25;;;;;;;9.95;5.43;;;14.40;99.90;;;;;;6185070;23;20445;-82
2022/11/01 04:54:51;;;;;;;12.60;5.72;;;14.40;99.90;;;;;;6211193;23;20079;-81
2022/11/01 04:57:23;;;;;;;10.95;5.15;;;14.40;99.90;;;;;;6160126;23;20016;-81
2022/11/01 04:59:52;;;;;;;12.35;5.05;;;14.40;99.90;;;;;;6184668;23;20008;-82
2022/11/01 05:02:22;;;;;;;13.27;5.55;;;14.40;99.90;;;;;;6184199;23;20079;-82
2022/11/01 05:04:49;;;;;;;10.00;4.72;;;14.40;99.90;;;;;;6184647;23;20311;-82
2022/11/01 05:07:15;;;;;;;14.63;5.15;;;14.40;99.90;;;;;;6211957;23;20079;-82
2022/11/01 05:09:41;;;;;;;10.23;5.20;;;14.50;99.90;;;;;;6211478;23;20063;-82
2022/11/01 05:12:07;;;;;;;8.75;5.13;;;14.60;99.90;;;;;;6184257;23;20460;-82
2022/11/01 05:14:33;;;;;;;11.30;4.90;;;14.60;99.90;;;;;;6184752;23;20013;-81
2022/11/01 05:16:59;;;;;;;10.77;4.97;;;14.90;99.90;;;;;;6184070;23;20024;-82
2022/11/01 05:19:25;;;;;;;11.25;4.82;;;14.60;99.90;;;;;;6183871;23;20012;-82
2022/11/01 05:21:51;;;;;;;10.77;5.35;;;14.70;99.90;;;;;;6184979;23;20020;-82
2022/11/01 05:24:17;;;;;;;12.15;5.72;;;14.80;99.90;;;;;;6211453;23;20388;-82
2022/11/01 05:26:42;;;;;;;11.38;5.65;;;14.70;99.90;;;;;;6211556;23;20083;-81
2022/11/01 05:29:08;;;;;;;11.70;4.88;;;14.70;99.90;;;;;;6184672;23;20047;-82
2022/11/01 05:31:35;;;;;;;15.15;5.35;;;14.70;99.90;;;;;;6184180;23;20032;-82
2022/11/01 05:34:00;;;;;;;11.20;5.55;;;14.80;99.90;;;;;;6210633;23;20051;-81
2022/11/01 05:36:26;;;;;;;11.25;5.10;;;14.80;99.90;;;;;;6184773;23;20017;-82
2022/11/01 05:38:55;;;;;;;12.95;5.07;;;14.80;99.90;;;;;;6158680;23;20016;-82
2022/11/01 05:41:21;;;;;;;13.75;5.45;;;14.90;99.90;;;;;;6210139;23;20052;-82
2022/11/01 05:43:46;;;;;;;10.13;5.28;;;15.00;99.90;;;;;;6184665;23;20601;-81
2022/11/01 05:46:12;;;;;;;10.60;5.00;;;15.00;99.90;;;;;;6211208;23;20044;-83
2022/11/01 05:48:37;;;;;;;10.30;4.57;;;15.00;99.90;;;;;;6212560;23;20084;-82
2022/11/01 05:51:03;;;;;;;8.93;4.13;;;15.10;99.90;;;;;;6209317;23;20020;-81
2022/11/01 05:53:29;;;;;;;12.25;4.22;;;15.10;99.90;;;;;;6182580;23;20015;-82
2022/11/01 05:55:55;;;;;;;9.25;4.80;;;15.20;99.90;;;;;;6184076;23;20352;-81
2022/11/01 05:58:21;;;;;;;10.77;4.90;;;15.20;99.90;;;;;;6211429;23;20135;-82
2022/11/01 06:00:46;;;;;;;10.07;4.18;;;15.20;99.90;;;;;;6183504;23;20500;-81
2022/11/01 06:03:12;;;;;;;11.45;3.33;;;15.20;99.90;;;;;;6210507;23;20008;-81
2022/11/01 06:05:38;;;;;;;10.50;2.50;;;15.20;99.90;;;;;;6183834;23;20021;-81
2022/11/01 06:08:05;;;;;;;7.55;1.80;;;15.20;99.90;;;;;;6184340;23;20012;-82
2022/11/01 06:10:31;;;;;;;8.60;1.30;;;15.20;99.90;;;;;;6184528;23;20108;-82
2022/11/01 06:12:57;;;;;;;4.82;1.15;;;15.10;99.90;;;;;;6159134;23;20017;-82
2022/11/01 06:15:22;;;;;;;6.40;1.50;;;15.20;99.90;;;;;;6182881;23;20027;-83
2022/11/01 06:17:54;;;;;;;7.22;1.10;;;14.90;99.90;;;;;;6210122;23;20437;-84
2022/11/01 06:20:20;;;;;;;6.22;1.02;;;14.80;99.90;;;;;;6211231;23;20024;-83
2022/11/01 06:22:45;;;;;;;6.63;1.52;;;14.70;99.90;;;;;;6210168;23;20016;-82
2022/11/01 06:25:11;;;;;;;4.70;1.00;;;14.70;99.90;;;;;;6183424;23;20075;-83
2022/11/01 06:27:36;;;;;;;4.30;1.10;;;14.70;99.90;;;;;;6183140;23;20461;-82
2022/11/01 06:30:03;;;;;;;5.78;0.85;;;14.70;99.90;;;;;;6209986;23;20012;-82
2022/11/01 06:32:28;;;;;;;4.30;0.90;;;14.60;99.90;;;;;;6183842;23;20201;-82
2022/11/01 06:34:54;;;;;;;5.55;1.20;;;14.60;99.90;;;;;;6184079;23;20433;-83
2022/11/01 06:37:20;;;;;;;4.18;0.80;;;14.50;99.90;;;;;;6158204;23;20008;-83
2022/11/01 06:39:45;;;;;;;2.88;0.73;;;14.50;99.90;;;;;;6204071;23;20037;-82
2022/11/01 06:42:11;;;;;;;4.95;1.10;;;14.50;99.90;;;;;;6178380;23;20337;-84
2022/11/01 06:44:36;;;;;;;3.65;0.60;;;14.40;99.90;;;;;;6178363;23;20013;-84
2022/11/01 06:47:02;;;;;;;5.47;0.60;;;14.20;99.90;;;;;;6179406;23;20096;-84
2022/11/01 06:49:28;;;;;;;7.53;0.85;;;14.20;99.90;;;;;;6204189;23;20493;-84
2022/11/01 06:51:53;;;;;;;6.05;0.65;;;14.10;99.90;;;;;;6180215;23;20041;-84
2022/11/01 06:54:19;;;;;;;4.45;0.73;;;14.00;99.90;;;;;;6178742;23;20454;-84
2022/11/01 06:56:48;;;;;;;10.65;0.73;;;14.10;99.90;;;;;;6177753;23;20027;-85
2022/11/01 06:59:15;;;;;;;6.13;0.65;;;13.90;99.90;;;;;;6180167;23;20048;-84
2022/11/01 07:01:41;;;;;;;7.35;0.90;;;13.90;99.90;;;;;;6179062;23;20016;-84
2022/11/01 07:04:07;;;;;;;4.03;0.90;;;13.90;99.90;;;;;;6178337;23;20024;-84
2022/11/01 07:06:32;;;;;;;5.03;1.00;;;13.90;99.90;;;;;;6178358;23;20013;-84
2022/11/01 07:08:58;;;;;;;4.13;0.77;;;13.80;99.90;;;;;;6181518;23;20021;-83
2022/11/01 07:11:24;;;;;;;6.22;0.73;;;13.70;99.90;;;;;;6180656;23;20017;-84
2022/11/01 07:13:49;;;;;;;5.18;0.70;;;13.70;99.90;;;;;;6179353;23;20063;-84
2022/11/01 07:16:15;;;;;;;10.15;1.15;;;13.70;99.90;;;;;;6182704;23;20025;-84
2022/11/01 07:18:41;;;;;;;9.48;1.00;;;13.60;99.90;;;;;;6180534;23;20529;-84
2022/11/01 07:21:07;;;;;;;8.65;1.13;;;13.60;99.90;;;;;;6156318;23;20021;-84
2022/11/01 07:23:33;;;;;;;6.03;0.98;;;13.70;99.90;;;;;;6178029;23;20009;-82
2022/11/01 07:25:59;;;;;;;8.70;0.90;;;13.70;99.90;;;;;;6181762;23;20013;-84
2022/11/01 07:28:24;;;;;;;6.10;0.90;;;13.70;99.90;;;;;;6180568;23;20067;-83
2022/11/01 07:30:51;;;;;;;9.80;0.90;;;13.70;99.90;;;;;;6180651;23;20024;-83
2022/11/01 07:33:18;;;;;;;10.57;1.40;;;13.70;99.90;;;;;;6180866;23;20017;-83
2022/11/01 07:35:44;;;;;;;8.43;0.93;;;13.80;99.90;;;;;;6181174;23;20025;-84
2022/11/01 07:38:10;;;;;;;6.72;1.17;;;13.80;99.90;;;;;;6188559;23;20048;-84
2022/11/01 07:40:36;;;;;;;7.78;1.15;;;13.70;99.90;;;;;;6212346;23;20348;-84
2022/11/01 07:43:03;;;;;;;7.70;1.17;;;13.80;99.90;;;;;;6184943;23;20054;-84
2022/11/01 07:45:30;;;;;;;5.85;0.90;;;13.80;99.90;;;;;;6160133;23;20025;-86
2022/11/01 07:48:06;;;;;;;5.55;1.10;;;13.80;99.90;;;;;;6185442;23;20013;-85
2022/11/01 07:50:32;;;;;;;11.00;1.70;;;13.90;99.90;;;;;;6161035;23;20032;-85
2022/11/01 07:53:12;;;;;;;8.60;1.60;;;13.90;99.90;;;;;;6212390;23;20024;-85
2022/11/01 07:55:39;;;;;;;8.40;1.42;;;14.00;99.90;;;;;;6189300;23;20135;-86
2022/11/01 07:58:05;;;;;;;7.22;1.00;;;14.10;99.90;;;;;;6211230;23;20008;-85
2022/11/01 08:00:30;;;;;;;5.95;1.00;;;14.10;99.90;;;;;;6186432;23;20604;-86
2022/11/01 08:03:01;;;;;;;5.63;0.82;;;14.10;99.90;;;;;;6185878;23;20387;-85
2022/11/01 08:05:27;;;;;;;7.93;1.08;;;14.10;99.90;;;;;;6211953;23;20049;-85
2022/11/01 08:07:53;;;;;;;8.38;1.63;;;14.20;99.90;;;;;;6212649;23;20008;-85
2022/11/01 08:10:18;;;;;;;7.82;1.13;;;14.30;99.90;;;;;;6211968;23;20023;-85
2022/11/01 08:12:44;;;;;;;9.07;0.90;;;14.30;99.90;;;;;;6211653;23;20012;-85
2022/11/01 08:15:10;;;;;;;8.93;1.10;;;14.40;99.90;;;;;;6212953;23;20368;-86
2022/11/01 08:17:35;;;;;;;6.80;1.20;;;14.40;99.90;;;;;;6212553;23;20020;-86
2022/11/01 08:20:01;;;;;;;9.88;1.67;;;14.40;99.90;;;;;;6211825;23;20032;-85
2022/11/01 08:22:27;;;;;;;11.60;1.48;;;14.50;99.90;;;;;;6212411;23;20017;-85
2022/11/01 08:24:52;;;;;;;9.80;1.23;;;14.40;99.90;;;;;;6185139;23;20031;-85
2022/11/01 08:27:18;;;;;;;9.73;1.17;;;14.40;99.90;;;;;;6184871;23;20020;-85
2022/11/01 08:29:43;;;;;;;13.93;1.67;;;14.40;99.90;;;;;;6212142;23;20451;-85
2022/11/01 08:32:09;;;;;;;10.75;1.73;;;14.50;99.90;;;;;;6212655;23;20018;-85
2022/11/01 08:34:35;;;;;;;8.95;1.70;;;14.50;99.90;;;;;;6211511;23;20437;-85
2022/11/01 08:37:00;;;;;;;11.23;1.35;;;14.50;99.90;;;;;;6185136;23;20052;-86
2022/11/01 08:39:26;;;;;;;12.50;2.15;;;14.40;99.90;;;;;;6211719;23;20012;-86
2022/11/01 08:41:51;;;;;;;12.85;2.42;;;14.50;99.90;;;;;;6211436;23;20048;-85
2022/11/01 08:44:18;;;;;;;17.13;2.25;;;14.40;99.90;;;;;;6185058;23;20017;-85
2022/11/01 08:46:45;;;;;;;13.25;1.40;;;14.40;99.90;;;;;;6212006;23;20008;-85
2022/11/01 08:49:12;;;;;;;19.42;2.25;;;14.30;99.90;;;;;;6184627;23;20390;-85
2022/11/01 08:51:38;;;;;;;10.13;2.50;;;14.30;99.90;;;;;;6209964;23;20012;-85
2022/11/01 08:54:06;;;;;;;13.20;2.08;;;14.30;99.90;;;;;;6211563;23;20012;-85
2022/11/01 08:56:32;;;;;;;22.58;2.55;;;14.30;99.90;;;;;;6184246;23;20023;-86
2022/11/01 08:58:58;;;;;;;12.10;1.98;;;14.40;99.90;;;;;;6211998;23;20013;-85
2022/11/01 09:01:25;;;;;;;16.48;1.88;;;14.40;99.90;;;;;;6211512;23;20014;-85
2022/11/01 09:03:59;;;;;;;18.85;2.72;;;14.50;99.90;;;;;;6211935;23;20028;-86
2022/11/01 09:06:26;;;;;;;19.52;2.13;;;14.50;99.90;;;;;;6184634;23;20020;-85
2022/11/01 09:08:54;;;;;;;15.52;2.33;;;14.60;99.90;;;;;;6183915;23;20040;-85
2022/11/01 09:11:21;;;;;;;13.73;2.38;;;14.70;99.90;;;;;;6184757;23;20372;-85
2022/11/01 09:13:48;;;;;;;14.73;2.40;;;14.70;99.90;;;;;;6185101;23;20318;-86
2022/11/01 09:16:13;;;;;;;16.48;2.65;;;14.70;99.90;;;;;;6184582;23;20084;-85
2022/11/01 09:18:39;;;;;;;14.93;2.03;;;14.70;99.90;;;;;;6184805;23;20048;-86
2022/11/01 09:21:06;;;;;;;13.18;2.45;;;14.70;99.90;;;;;;6184823;23;20024;-85
2022/11/01 09:23:33;;;;;;;14.68;2.20;;;14.80;99.90;;;;;;6184133;23;20135;-85
2022/11/01 09:26:03;;;;;;;11.63;2.33;;;14.70;99.90;;;;;;6184775;23;20376;-85
2022/11/01 09:28:30;;;;;;;17.58;2.00;;;14.80;99.90;;;;;;6184968;23;20015;-86
2022/11/01 09:30:56;;;;;;;11.80;2.13;;;14.80;99.90;;;;;;6184801;23;20071;-86
2022/11/01 09:33:22;;;;;;;13.05;2.15;;;14.90;99.90;;;;;;6184495;23;20333;-85
2022/11/01 09:35:51;;;;;;;12.93;1.90;;;14.90;99.90;;;;;;6184554;23;20062;-86
2022/11/01 09:38:17;;;;;;;14.32;2.47;;;15.00;99.90;;;;;;6183863;23;20017;-85
2022/11/01 09:40:48;;;;;;;16.05;2.05;;;15.10;99.90;;;;;;6211281;23;20028;-85
2022/11/01 09:43:19;;;;;;;16.63;2.22;;;15.20;99.90;;;;;;6184717;23;20388;-85
2022/11/01 09:45:45;;;;;;;11.93;2.65;;;15.30;99.90;;;;;;6159886;23;20032;-85
2022/11/01 09:48:14;;;;;;;10.07;2.13;;;15.30;99.90;;;;;;6211383;23;20377;-85
2022/11/01 09:50:42;;;;;;;15.50;2.30;;;15.30;99.90;;;;;;6184444;23;20013;-85
2022/11/01 09:53:24;;;;;;;16.45;3.00;;;15.40;99.90;;;;;;6210569;23;20433;-85
2022/11/01 09:56:11;;;;;;;13.73;2.25;;;15.50;99.90;;;;;;6211310;23;20016;-85
2022/11/01 09:59:18;;;;;;;14.30;2.45;;;15.50;99.90;;;;;;6184453;23;20021;-86
2022/11/01 10:02:02;;;;;;;16.90;2.63;;;15.60;99.90;;;;;;6182253;23;20017;-86
2022/11/01 10:04:43;;;;;;;16.13;2.72;;;15.60;99.90;;;;;;6211005;23;20441;-85
2022/11/01 10:07:47;;;;;;;14.35;2.47;;;15.70;99.90;;;;;;6210984;23;20020;-85
2022/11/01 10:10:37;;;;;;;16.63;2.28;;;15.80;99.90;;;;;;6211033;23;20008;-86
2022/11/01 10:13:21;;;;;;;12.55;2.53;;;15.90;99.90;;;;;;6184173;23;20044;-85
2022/11/01 10:16:16;;;;;;;15.57;2.35;;;16.00;99.90;;;;;;6211166;23;20089;-85
2022/11/01 10:18:58;;;;;;;10.63;2.05;;;15.90;99.90;;;;;;6185944;23;20019;-85
2022/11/01 10:21:26;;;;;;;13.70;2.28;;;15.90;99.90;;;;;;6159020;23;20095;-85
2022/11/01 10:23:54;;;;;;;19.33;2.85;;;15.80;99.90;;;;;;6184105;23;20020;-85
2022/11/01 10:26:29;;;;;;;13.23;2.08;;;15.80;99.90;;;;;;6184113;23;20012;-86
2022/11/01 10:29:43;;;;;;;12.90;2.72;;;15.70;99.90;;;;;;6184925;23;20063;-85
2022/11/01 10:32:41;;;;;;;15.10;2.97;;;15.80;99.90;;;;;;6206411;23;20008;-86
2022/11/01 10:35:16;;;;;;;15.95;2.88;;;15.80;99.90;;;;;;6159794;23;20016;-86
2022/11/01 10:37:52;;;;;;;22.52;2.53;;;15.80;99.90;;;;;;6210357;23;20048;-84
2022/11/01 10:40:23;;;;;;;15.52;2.20;;;15.80;99.90;;;;;;6209207;23;20028;-85
2022/11/01 10:42:49;;;;;;;17.27;2.22;;;15.80;99.90;;;;;;6210582;23;20019;-85
2022/11/01 10:45:16;;;;;;;11.65;2.42;;;15.90;99.90;;;;;;6211015;23;20311;-85
2022/11/01 10:47:45;;;;;;;18.75;2.85;;;15.90;99.90;;;;;;6210956;23;20051;-85
2022/11/01 10:50:10;;;;;;;14.68;2.40;;;15.90;99.90;;;;;;6183255;23;20020;-86
2022/11/01 10:52:50;;;;;;;18.98;2.72;;;15.90;99.90;;;;;;6184102;23;20396;-85
2022/11/01 10:55:28;;;;;;;12.60;2.42;;;15.80;99.90;;;;;;6184372;23;20475;-85
2022/11/01 10:58:02;;;;;;;16.40;2.25;;;15.70;99.90;;;;;;6184261;23;20073;-85
2022/11/01 11:00:31;;;;;;;13.50;2.33;;;15.70;99.90;;;;;;6210752;23;20101;-85
2022/11/01 11:03:01;;;;;;;11.77;2.33;;;15.60;99.90;;;;;;6210968;23;20406;-85
2022/11/01 11:05:29;;;;;;;17.67;2.70;;;15.70;99.90;;;;;;6183265;23;20009;-85
2022/11/01 11:07:56;;;;;;;18.23;2.40;;;15.70;99.90;;;;;;6210627;23;20013;-85
2022/11/01 11:10:25;;;;;;;16.30;2.45;;;15.60;99.90;;;;;;6210904;23;20075;-85
2022/11/01 11:13:05;;;;;;;15.02;2.97;;;15.60;99.90;;;;;;6184411;23;20016;-85
2022/11/01 11:15:41;;;;;;;17.42;2.65;;;15.50;99.90;;;;;;6159913;23;20293;-85
2022/11/01 11:18:18;;;;;;;14.55;2.65;;;15.50;99.90;;;;;;6183954;23;20023;-86
2022/11/01 11:20:50;;;;;;;15.05;2.33;;;15.50;99.90;;;;;;6210204;23;20012;-86
2022/11/01 11:23:20;;;;;;;19.65;2.42;;;15.50;99.90;;;;;;6210927;23;20048;-85
2022/11/01 11:25:49;;;;;;;14.60;2.20;;;15.50;99.90;;;;;;6184052;23;20021;-85
2022/11/01 11:28:29;;;;;;;10.93;2.10;;;15.50;99.90;;;;;;6210466;23;20019;-85
2022/11/01 11:30:57;;;;;;;16.98;2.05;;;15.60;99.90;;;;;;6210994;23;20062;-85
2022/11/01 11:33:23;;;;;;;13.63;2.15;;;15.70;99.90;;;;;;6210751;23;20329;-85
2022/11/01 11:35:57;;;;;;;11.55;2.38;;;15.80;99.90;;;;;;6210304;23;20017;-86
2022/11/01 11:38:43;;;;;;;12.32;2.05;;;15.90;99.90;;;;;;6183882;23;20020;-85
2022/11/01 11:41:11;;;;;;;13.07;2.45;;;15.80;99.90;;;;;;6184007;23;20028;-85
2022/11/01 11:43:40;;;;;;;11.80;2.63;;;16.00;99.90;;;;;;6183705;23;20472;-86
2022/11/01 11:46:14;;;;;;;11.25;2.20;;;16.40;99.90;;;;;;6184058;23;20048;-85
2022/11/01 11:48:59;;;;;;;14.50;2.17;;;16.10;99.90;;;;;;6183458;23;20044;-85
2022/11/01 11:51:28;;;;;;;12.23;2.10;;;16.20;99.90;;;;;;6210425;23;20099;-85
2022/11/01 11:54:16;;;;;;;17.63;2.47;;;16.20;99.90;;;;;;6211019;23;20365;-85
2022/11/01 11:56:44;;;;;;;14.45;2.65;;;16.40;99.90;;;;;;6185125;23;20051;-85
2022/11/01 11:59:29;;;;;;;15.02;3.03;;;16.40;99.90;;;;;;6185676;23;20013;-85
2022/11/01 12:02:01;;;;;;;15.13;2.10;;;16.60;99.90;;;;;;6185365;23;20382;-85
2022/11/01 12:04:32;;;;;;;11.85;2.00;;;16.70;99.90;;;;;;6212247;23;20026;-86
2022/11/01 12:06:57;;;;;;;11.88;2.20;;;16.70;99.90;;;;;;6215410;23;20020;-86
2022/11/01 12:09:46;;;;;;;12.88;2.17;;;16.70;99.90;;;;;;6186756;23;20345;-86
2022/11/01 12:12:21;;;;;;;11.02;2.03;;;16.70;99.90;;;;;;6185492;23;20009;-85
2022/11/01 12:14:46;;;;;;;;;;;16.70;99.90;;;;;;6185828;23;20016;-85
2022/11/01 12:17:30;;;;;;;10.23;2.47;;;16.70;99.90;;;;;;6211907;23;19966;-86
2022/11/01 12:20:13;;;;;;;11.55;2.42;;;16.70;99.90;;;;;;6212413;23;20024;-86
2022/11/01 12:23:01;;;;;;;12.95;2.53;;;16.70;99.90;;;;;;6212004;23;20459;-85
2022/11/01 12:25:27;;;;;;;12.15;1.58;;;16.70;99.90;;;;;;6185595;23;20024;-86
2022/11/01 12:28:21;;;;;;;13.10;1.85;;;16.80;99.90;;;;;;6185244;23;20088;-85
2022/11/01 12:30:50;;;;;;;14.27;1.80;;;16.90;99.90;;;;;;6185737;23;20091;-85
2022/11/01 12:33:29;;;;;;;11.48;1.88;;;17.00;99.90;;;;;;6211722;23;20016;-86
2022/11/01 12:35:56;;;;;;;11.60;1.80;;;17.00;99.90;;;;;;6185253;23;20021;-86
2022/11/01 12:38:44;;;;;;;16.48;1.98;;;17.20;99.90;;;;;;6185510;23;20015;-85
2022/11/01 12:41:29;;;;;;;8.07;1.48;;;17.30;99.90;;;;;;6212021;23;20054;-86
2022/11/01 12:44:17;;;;;;;11.77;1.85;;;17.30;99.90;;;;;;6185295;23;20028;-84
2022/11/01 12:47:13;;;;;;;12.07;1.52;;;17.30;99.90;;;;;;6184679;23;20016;-82
2022/11/01 12:50:04;;;;;;;8.88;1.98;;;17.30;99.90;;;;;;6184982;23;20021;-82
2022/11/01 12:52:51;;;;;;;10.35;1.77;;;17.20;99.90;;;;;;6211889;23;20009;-83
2022/11/01 12:55:33;;;;;;;11.38;1.83;;;17.20;99.90;;;;;;6212279;23;20020;-83
2022/11/01 12:57:58;;;;;;;11.05;1.70;;;17.20;99.90;;;;;;6212107;23;20012;-83
2022/11/01 13:00:37;;;;;;;10.57;2.08;;;17.10;99.90;;;;;;6212621;23;20016;-82
2022/11/01 13:03:29;;;;;;;10.75;1.48;;;17.10;99.90;;;;;;6185158;23;20013;-83